Time;durP1;ratioP1;P1;durP2;ratioP2;P2;SDS_P1;SDS_P2;PMS_P1;PMS_P2;Temp;Humidity;BMP_temperature;BMP_pressure;BME280_temperature;BME280_humidity;BME280_pressure;Samples;Min_cycle;Max_cycle;Signal;HPM_P1;HPM_P2
2023/06/24 00:00:11;;;;;;;;;;;;;;;23.83;45.95;102176.59;4125387;28;19926;-65
2023/06/24 00:02:13;;;;;;;;;;;;;;;23.83;45.83;102176.59;4115898;28;19926;-64
2023/06/24 00:04:16;;;;;;;;;;;;;;;23.83;45.89;102176.59;4125365;28;19951;-64
2023/06/24 00:06:22;;;;;;;;;;;;;;;23.82;46.02;102172.19;4117518;28;20380;-65
2023/06/24 00:08:23;;;;;;;;;;;;;;;23.81;45.98;102175.84;4124229;28;19941;-64
2023/06/24 00:10:25;;;;;;;;;;;;;;;23.81;45.90;102172.31;4120465;28;19965;-65
2023/06/24 00:12:27;;;;;;;;;;;;;;;23.81;45.91;102172.31;4131640;28;19926;-64
2023/06/24 00:14:28;;;;;;;;;;;;;;;23.80;46.12;102166.06;4122390;28;19930;-64
2023/06/24 00:16:30;;;;;;;;;;;;;;;23.79;45.94;102166.16;4128073;28;19980;-64
2023/06/24 00:18:32;;;;;;;;;;;;;;;23.78;46.13;102176.06;4128726;28;19926;-63
2023/06/24 00:20:33;;;;;;;;;;;;;;;23.76;46.37;102170.78;4120550;28;19926;-64
2023/06/24 00:22:36;;;;;;;;;;;;;;;23.75;45.92;102169.06;4131641;28;19980;-63
2023/06/24 00:24:39;;;;;;;;;;;;;;;23.75;46.21;102174.41;4123402;28;20058;-64
2023/06/24 00:26:41;;;;;;;;;;;;;;;23.76;45.93;102175.31;4126914;28;19976;-64
2023/06/24 00:28:42;;;;;;;;;;;;;;;23.74;46.05;102164.66;4128768;28;19973;-65
2023/06/24 00:30:44;;;;;;;;;;;;;;;23.73;46.42;102162.94;4120554;28;19968;-65
2023/06/24 00:32:45;;;;;;;;;;;;;;;23.73;45.96;102162.94;4131252;28;19933;-66
2023/06/24 00:34:47;;;;;;;;;;;;;;;23.73;46.25;102167.44;4125283;28;20024;-65
2023/06/24 00:36:49;;;;;;;;;;;;;;;23.73;46.22;102165.63;4125090;28;19926;-66
2023/06/24 00:38:51;;;;;;;;;;;;;;;23.72;46.23;102163.91;4129319;28;20017;-64
2023/06/24 00:40:52;;;;;;;;;;;;;;;23.60;45.98;102143.28;4119472;28;19966;-64
2023/06/24 00:42:54;;;;;;;;;;;;;;;23.72;46.16;102154.97;4131150;28;19926;-64
2023/06/24 00:44:56;;;;;;;;;;;;;;;23.70;46.14;102163.16;4127057;28;19941;-64
2023/06/24 00:46:57;;;;;;;;;;;;;;;23.71;46.41;102164.03;4122893;28;19972;-64
2023/06/24 00:49:00;;;;;;;;;;;;;;;23.70;46.18;102156.94;4130358;28;19938;-64
2023/06/24 00:51:02;;;;;;;;;;;;;;;23.70;46.15;102157.78;4126815;28;20353;-64
2023/06/24 00:53:03;;;;;;;;;;;;;;;23.69;46.15;102156.03;4128449;28;20024;-64
2023/06/24 00:55:06;;;;;;;;;;;;;;;23.69;46.21;102158.72;4128097;28;19926;-64
2023/06/24 00:57:08;;;;;;;;;;;;;;;23.69;45.98;102165.94;4120924;28;19933;-64
2023/06/24 00:59:12;;;;;;;;;;;;;;;23.68;46.15;102165.09;4130678;28;19980;-64
2023/06/24 01:01:14;;;;;;;;;;;;;;;23.67;46.38;102167.88;4120481;28;19926;-64
2023/06/24 01:03:16;;;;;;;;;;;;;;;23.67;46.13;102163.38;4129554;28;20339;-64
2023/06/24 01:05:18;;;;;;;;;;;;;;;23.68;46.42;102169.59;4129089;28;19926;-64
2023/06/24 01:07:19;;;;;;;;;;;;;;;23.67;46.12;102168.75;4116237;28;20505;-64
2023/06/24 01:09:21;;;;;;;;;;;;;;;23.66;46.07;102174.19;4114632;28;19930;-64
2023/06/24 01:11:23;;;;;;;;;;;;;;;23.66;46.21;102166.13;4123461;28;19980;-64
2023/06/24 01:13:25;;;;;;;;;;;;;;;23.65;46.56;102170.66;4117796;28;19926;-64
2023/06/24 01:15:28;;;;;;;;;;;;;;;23.64;46.41;102166.25;4115814;28;19930;-64
2023/06/24 01:17:48;;;;;;;;;;;;;;;23.63;46.50;102164.53;4124529;28;19934;-64
2023/06/24 01:19:50;;;;;;;;;;;;;;;23.64;46.13;102163.56;4114706;28;19936;-63
2023/06/24 01:22:14;;;;;;;;;;;;;;;23.63;46.21;102156.47;4124150;28;19926;-64
2023/06/24 01:24:48;;;;;;;;;;;;;;;23.62;46.27;102154.75;4114554;28;19973;-62
2023/06/24 01:27:08;;;;;;;;;;;;;;;23.61;46.35;102153.91;4096397;29;20386;-64
2023/06/24 01:29:30;;;;;;;;;;;;;;;23.60;46.15;102156.69;4095048;29;19930;-63
2023/06/24 01:31:39;;;;;;;;;;;;;;;23.59;46.55;102154.97;4096346;29;19926;-62
2023/06/24 01:33:48;;;;;;;;;;;;;;;23.60;46.39;102148.63;4096492;29;19926;-64
2023/06/24 01:35:50;;;;;;;;;;;;;;;23.59;46.22;102155.81;4096145;29;19934;-63
2023/06/24 01:37:52;;;;;;;;;;;;;;;23.58;46.63;102155.94;4095255;29;20042;-63
2023/06/24 01:39:56;;;;;;;;;;;;;;;23.57;46.29;102152.41;4096922;29;19930;-64
2023/06/24 01:42:00;;;;;;;;;;;;;;;23.57;46.49;102148.84;4096426;29;20376;-64
2023/06/24 01:44:04;;;;;;;;;;;;;;;23.56;46.29;102150.66;4095448;29;20335;-64
2023/06/24 01:46:07;;;;;;;;;;;;;;;23.56;46.47;102150.66;4096381;29;19927;-64
2023/06/24 01:48:25;;;;;;;;;;;;;;;23.54;46.34;102152.59;4095216;29;20092;-64
2023/06/24 01:50:30;;;;;;;;;;;;;;;23.55;46.16;102148.06;4096293;29;20439;-63
2023/06/24 01:52:33;;;;;;;;;;;;;;;23.53;46.38;102139.28;4089531;29;20046;-64
2023/06/24 01:54:36;;;;;;;;;;;;;;;23.53;46.44;102139.28;4092002;29;19930;-64
2023/06/24 01:56:39;;;;;;;;;;;;;;;23.53;46.26;102147.34;4096337;29;19927;-65
2023/06/24 01:58:42;;;;;;;;;;;;;;;23.53;46.58;102140.13;4095097;29;19986;-64
2023/06/24 02:00:44;;;;;;;;;;;;;;;23.53;46.24;102140.13;4096518;29;19926;-64
2023/06/24 02:02:46;;;;;;;;;;;;;;;23.52;46.59;102141.09;4108844;28;19930;-64
2023/06/24 02:04:49;;;;;;;;;;;;;;;23.51;46.33;102144.72;4127262;28;20302;-63
2023/06/24 02:06:53;;;;;;;;;;;;;;;23.51;46.59;102138.50;4132297;28;19925;-63
2023/06/24 02:08:58;;;;;;;;;;;;;;;23.52;46.27;102134.88;4126633;28;19926;-64
2023/06/24 02:11:01;;;;;;;;;;;;;;;23.50;46.68;102140.34;4116229;28;19986;-64
2023/06/24 02:13:03;;;;;;;;;;;;;;;23.49;46.37;102138.63;4122695;28;19925;-64
2023/06/24 02:15:06;;;;;;;;;;;;;;;23.48;46.69;102136.91;4123581;28;20010;-63
2023/06/24 02:17:09;;;;;;;;;;;;;;;23.48;46.60;102139.59;4117587;28;19976;-64
2023/06/24 02:19:11;;;;;;;;;;;;;;;23.48;46.67;102147.63;4127076;28;20013;-63
2023/06/24 02:21:14;;;;;;;;;;;;;;;23.48;46.65;102154.84;4117217;28;19926;-64
2023/06/24 02:23:16;;;;;;;;;;;;;;;23.48;46.73;102146.78;4121644;28;19980;-64
2023/06/24 02:25:17;;;;;;;;;;;;;;;23.47;46.40;102148.59;4124602;28;19930;-64
2023/06/24 02:27:19;;;;;;;;;;;;;;;23.47;46.32;102147.75;4116420;28;19933;-65
2023/06/24 02:29:22;;;;;;;;;;;;;;;23.46;46.39;102154.94;4128137;28;19976;-64
2023/06/24 02:31:24;;;;;;;;;;;;;;;23.46;46.40;102152.25;4117031;28;20315;-64
2023/06/24 02:33:26;;;;;;;;;;;;;;;23.44;46.37;102149.69;4119774;28;19926;-64
2023/06/24 02:35:28;;;;;;;;;;;;;;;23.44;46.63;102149.69;4125514;28;20410;-64
2023/06/24 02:37:29;;;;;;;;;;;;;;;23.44;46.41;102154.19;4116231;28;19949;-65
2023/06/24 02:39:31;;;;;;;;;;;;;;;23.43;46.40;102149.78;4127065;28;20060;-64
2023/06/24 02:41:32;;;;;;;;;;;;;;;23.42;46.67;102150.75;4117078;28;19926;-65
2023/06/24 02:43:36;;;;;;;;;;;;;;;23.43;46.38;102150.63;4118215;28;20300;-64
2023/06/24 02:45:38;;;;;;;;;;;;;;;23.43;46.60;102147.94;4126986;28;19926;-64
2023/06/24 02:47:41;;;;;;;;;;;;;;;23.41;46.74;102146.34;4115896;28;19930;-64
2023/06/24 02:49:46;;;;;;;;;;;;;;;23.40;46.56;102148.19;4126006;28;20020;-63
2023/06/24 02:51:47;;;;;;;;;;;;;;;23.41;46.79;102157.91;4124630;28;20229;-64
2023/06/24 02:53:49;;;;;;;;;;;;;;;23.40;46.74;102160.72;4131487;28;20016;-63
2023/06/24 02:55:51;;;;;;;;;;;;;;;23.40;46.87;102152.66;4121617;28;19925;-64
2023/06/24 02:57:53;;;;;;;;;;;;;;;23.40;46.65;102155.34;4131911;28;20002;-64
2023/06/24 02:59:55;;;;;;;;;;;;;;;23.39;46.56;102150.94;4124132;28;19926;-64
2023/06/24 03:01:57;;;;;;;;;;;;;;;23.37;46.87;102151.06;4128795;28;19930;-65
2023/06/24 03:03:59;;;;;;;;;;;;;;;23.38;46.68;102147.41;4130771;28;19981;-65
2023/06/24 03:06:02;;;;;;;;;;;;;;;23.38;46.63;102151.91;4121839;28;19930;-65
2023/06/24 03:08:04;;;;;;;;;;;;;;;23.38;46.87;102155.47;4131028;28;19957;-66
2023/06/24 03:10:06;;;;;;;;;;;;;;;23.36;46.72;102143.09;4125351;28;19948;-65
2023/06/24 03:12:07;;;;;;;;;;;;;;;23.36;46.75;102148.47;4127451;28;20000;-64
2023/06/24 03:14:12;;;;;;;;;;;;;;;23.35;46.92;102147.59;4131082;28;19925;-65
2023/06/24 03:16:14;;;;;;;;;;;;;;;23.34;46.71;102143.19;4120797;28;19926;-65
2023/06/24 03:18:16;;;;;;;;;;;;;;;23.33;46.79;102146.88;4129664;28;19925;-65
2023/06/24 03:20:18;;;;;;;;;;;;;;;23.34;46.74;102145.03;4126575;28;19934;-65
2023/06/24 03:22:20;;;;;;;;;;;;;;;23.33;46.92;102152.22;4124907;28;19925;-65
2023/06/24 03:24:22;;;;;;;;;;;;;;;23.32;46.93;102145.13;4131693;28;20437;-64
2023/06/24 03:26:24;;;;;;;;;;;;;;;23.31;46.98;102146.09;4119503;28;19998;-64
2023/06/24 03:28:26;;;;;;;;;;;;;;;23.31;46.80;102140.72;4131259;28;19926;-65
2023/06/24 03:30:27;;;;;;;;;;;;;;;23.31;47.04;102139.84;4127945;28;19926;-65
2023/06/24 03:32:29;;;;;;;;;;;;;;;23.32;46.76;102141.56;4123920;28;19926;-65
2023/06/24 03:34:31;;;;;;;;;;;;;;;23.30;46.81;102133.63;4132262;28;19930;-65
2023/06/24 03:36:34;;;;;;;;;;;;;;;23.29;46.84;102134.59;4120390;28;19926;-65
2023/06/24 03:38:36;;;;;;;;;;;;;;;23.28;46.96;102138.25;4130487;28;19933;-65
2023/06/24 03:40:38;;;;;;;;;;;;;;;23.27;47.00;102145.44;4129191;28;20302;-65
2023/06/24 03:42:39;;;;;;;;;;;;;;;23.28;46.81;102136.44;4122926;28;19932;-65
2023/06/24 03:44:41;;;;;;;;;;;;;;;23.28;46.84;102143.59;4132048;28;19926;-64
2023/06/24 03:46:42;;;;;;;;;;;;;;;23.27;46.75;102144.59;4120931;28;19926;-65
2023/06/24 03:48:44;;;;;;;;;;;;;;;23.25;46.83;102144.69;4129058;28;19932;-64
2023/06/24 03:50:46;;;;;;;;;;;;;;;23.25;47.14;102150.03;4127811;28;19989;-64
2023/06/24 03:52:47;;;;;;;;;;;;;;;23.26;46.90;102153.59;4124548;28;19926;-64
2023/06/24 03:54:49;;;;;;;;;;;;;;;23.25;46.89;102154.56;4115750;28;20087;-63
2023/06/24 03:56:51;;;;;;;;;;;;;;;23.24;46.98;102159.06;4123959;28;19965;-63
2023/06/24 03:58:52;;;;;;;;;;;;;;;23.24;47.10;102161.72;4117757;28;19965;-63
2023/06/24 04:00:56;;;;;;;;;;;;;;;23.25;47.09;102162.63;4116466;28;19926;-65
2023/06/24 04:03:00;;;;;;;;;;;;;;;23.24;47.17;102158.22;4126649;28;19932;-64
2023/06/24 04:05:02;;;;;;;;;;;;;;;23.23;47.05;102164.53;4116061;28;19926;-64
2023/06/24 04:07:07;;;;;;;;;;;;;;;23.23;46.83;102165.41;4122525;28;20012;-64
2023/06/24 04:09:09;;;;;;;;;;;;;;;23.22;46.92;102163.69;4133128;28;19972;-65
2023/06/24 04:11:11;;;;;;;;;;;;;;;23.22;47.21;102171.75;4130180;28;20029;-65
2023/06/24 04:13:13;;;;;;;;;;;;;;;23.21;46.91;102170.00;4120573;28;19925;-64
2023/06/24 04:15:14;;;;;;;;;;;;;;;23.21;46.88;102167.31;4131244;28;20339;-64
2023/06/24 04:17:16;;;;;;;;;;;;;;;23.21;46.92;102158.41;4125170;28;19973;-64
2023/06/24 04:19:17;;;;;;;;;;;;;;;23.21;47.16;102161.06;4124714;28;19926;-65
2023/06/24 04:21:19;;;;;;;;;;;;;;;23.21;47.32;102158.41;4130447;28;19925;-65
2023/06/24 04:23:20;;;;;;;;;;;;;;;23.21;47.19;102161.06;4120222;28;20376;-64
2023/06/24 04:25:22;;;;;;;;;;;;;;;23.21;46.92;102161.97;4131508;28;19929;-65
2023/06/24 04:27:23;;;;;;;;;;;;;;;23.21;46.96;102164.66;4125927;28;20335;-64
2023/06/24 04:29:25;;;;;;;;;;;;;;;23.20;46.76;102165.59;4122737;28;19968;-65
2023/06/24 04:31:27;;;;;;;;;;;;;;;23.19;46.99;102168.41;4129700;28;19953;-65
2023/06/24 04:33:29;;;;;;;;;;;;;;;23.19;47.32;102168.41;4119170;28;20017;-65
2023/06/24 04:35:31;;;;;;;;;;;;;;;23.19;47.18;102168.41;4131042;28;20016;-65
2023/06/24 04:37:33;;;;;;;;;;;;;;;23.18;46.94;102167.50;4127919;28;19926;-64
2023/06/24 04:39:34;;;;;;;;;;;;;;;23.18;47.24;102164.84;4121181;28;19933;-65
2023/06/24 04:41:36;;;;;;;;;;;;;;;23.18;46.89;102161.31;4131577;28;19933;-65
2023/06/24 04:43:37;;;;;;;;;;;;;;;23.18;47.30;102162.16;4120644;28;19926;-65
2023/06/24 04:45:39;;;;;;;;;;;;;;;23.17;46.94;102162.25;4128856;28;19996;-65
2023/06/24 04:47:41;;;;;;;;;;;;;;;23.17;47.08;102156.88;4129609;28;20374;-65
2023/06/24 04:49:42;;;;;;;;;;;;;;;23.16;47.08;102165.88;4127621;28;19930;-63
2023/06/24 04:51:44;;;;;;;;;;;;;;;23.16;47.28;102169.44;4125305;28;19932;-65
2023/06/24 04:53:46;;;;;;;;;;;;;;;23.17;47.24;102164.94;4123786;28;20330;-65
2023/06/24 04:55:47;;;;;;;;;;;;;;;23.16;47.01;102164.06;4118215;28;19975;-65
2023/06/24 04:57:49;;;;;;;;;;;;;;;23.15;47.44;102165.03;4115851;28;20306;-65
2023/06/24 04:59:50;;;;;;;;;;;;;;;23.16;47.06;102169.44;4124861;28;19926;-65
2023/06/24 05:01:52;;;;;;;;;;;;;;;23.17;47.09;102173.00;4114974;28;20386;-65
2023/06/24 05:03:53;;;;;;;;;;;;;;;23.16;47.08;102173.91;4121587;28;20016;-65
2023/06/24 05:05:55;;;;;;;;;;;;;;;23.14;47.37;102172.19;4120237;28;20002;-65
2023/06/24 05:07:56;;;;;;;;;;;;;;;23.15;47.33;102165.03;4120153;28;19976;-65
2023/06/24 05:09:58;;;;;;;;;;;;;;;23.14;47.39;102169.50;4119892;28;19941;-65
2023/06/24 05:12:00;;;;;;;;;;;;;;;23.15;47.04;102167.69;4130957;28;19953;-65
2023/06/24 05:14:03;;;;;;;;;;;;;;;23.14;47.14;102174.03;4125410;28;19930;-65
2023/06/24 05:16:04;;;;;;;;;;;;;;;23.14;47.12;102179.41;4124341;28;20021;-64
2023/06/24 05:18:06;;;;;;;;;;;;;;;23.13;47.50;102177.66;4129878;28;19996;-64
2023/06/24 05:20:08;;;;;;;;;;;;;;;23.13;47.35;102172.31;4118585;28;19933;-64
2023/06/24 05:22:10;;;;;;;;;;;;;;;23.12;47.15;102168.78;4129765;28;20016;-64
2023/06/24 05:24:11;;;;;;;;;;;;;;;23.12;47.22;102168.78;4126955;28;19976;-64
2023/06/24 05:26:13;;;;;;;;;;;;;;;23.13;47.15;102170.47;4122646;28;20033;-64
2023/06/24 05:28:15;;;;;;;;;;;;;;;23.11;47.43;102172.41;4129635;28;19969;-65
2023/06/24 05:30:17;;;;;;;;;;;;;;;23.12;47.22;102175.94;4119547;28;19978;-64
2023/06/24 05:32:20;;;;;;;;;;;;;;;23.12;47.36;102173.25;4129625;28;19932;-64
2023/06/24 05:34:21;;;;;;;;;;;;;;;23.12;47.25;102170.56;4128119;28;19984;-65
2023/06/24 05:36:23;;;;;;;;;;;;;;;23.12;47.20;102162.53;4120605;28;19968;-65
2023/06/24 05:38:25;;;;;;;;;;;;;;;23.12;47.15;102173.25;4130302;28;19965;-65
2023/06/24 05:40:26;;;;;;;;;;;;;;;23.11;47.14;102169.72;4138875;28;19926;-65
2023/06/24 05:42:28;;;;;;;;;;;;;;;23.11;47.09;102177.78;4120050;28;20012;-65
2023/06/24 05:44:29;;;;;;;;;;;;;;;23.11;47.20;102175.09;4118854;28;19941;-65
2023/06/24 05:46:31;;;;;;;;;;;;;;;23.11;47.37;102176.91;4128217;28;19958;-63
2023/06/24 05:48:32;;;;;;;;;;;;;;;23.10;47.17;102176.06;4121288;28;19938;-65
2023/06/24 05:50:34;;;;;;;;;;;;;;;23.11;47.18;102174.22;4129590;28;20511;-65
2023/06/24 05:52:35;;;;;;;;;;;;;;;23.09;47.30;102179.69;4133227;28;19934;-65
2023/06/24 05:54:37;;;;;;;;;;;;;;;23.09;47.37;102168.97;4132251;28;19981;-66
2023/06/24 05:56:39;;;;;;;;;;;;;;;23.09;47.34;102173.47;4122801;28;19929;-66
2023/06/24 05:58:40;;;;;;;;;;;;;;;23.07;47.25;102170.03;4132617;28;19926;-65
2023/06/24 06:00:42;;;;;;;;;;;;;;;23.07;47.48;102170.88;4127038;28;19961;-65
2023/06/24 06:02:44;;;;;;;;;;;;;;;23.08;47.01;102172.59;4127701;28;19926;-66
2023/06/24 06:04:46;;;;;;;;;;;;;;;23.08;47.57;102169.06;4132520;28;19949;-65
2023/06/24 06:06:48;;;;;;;;;;;;;;;23.07;47.18;102173.56;4122317;28;20299;-66
2023/06/24 06:08:49;;;;;;;;;;;;;;;23.08;47.31;102169.91;4117400;28;19930;-66
2023/06/24 06:10:51;;;;;;;;;;;;;;;23.07;47.14;102170.88;4121506;28;20032;-66
2023/06/24 06:12:55;;;;;;;;;;;;;;;22.97;47.45;102154.53;4124247;28;20394;-65
2023/06/24 06:14:56;;;;;;;;;;;;;;;23.07;47.26;102173.56;4116309;28;19930;-65
2023/06/24 06:16:58;;;;;;;;;;;;;;;22.87;47.16;102137.31;4129382;28;19960;-66
2023/06/24 06:18:59;;;;;;;;;;;;;;;23.08;47.48;102171.75;4116365;28;19926;-65
2023/06/24 06:21:01;;;;;;;;;;;;;;;23.06;47.30;102168.31;4120444;28;19954;-65
2023/06/24 06:23:02;;;;;;;;;;;;;;;23.07;47.21;102175.41;4126123;28;19953;-66
2023/06/24 06:25:05;;;;;;;;;;;;;;;23.06;47.26;102170.97;4117003;28;20024;-66
2023/06/24 06:27:11;;;;;;;;;;;;;;;23.07;47.21;102175.41;4127568;28;19932;-66
2023/06/24 06:29:13;;;;;;;;;;;;;;;23.06;47.12;102171.88;4117140;28;20408;-65
2023/06/24 06:31:15;;;;;;;;;;;;;;;23.07;47.29;102172.72;4119005;28;19928;-64
2023/06/24 06:33:16;;;;;;;;;;;;;;;23.07;47.48;102168.19;4141787;28;20342;-65
2023/06/24 06:35:18;;;;;;;;;;;;;;;23.07;47.13;102178.91;4131990;28;20012;-64
2023/06/24 06:37:20;;;;;;;;;;;;;;;23.08;47.23;102174.44;4123009;28;19926;-65
2023/06/24 06:39:21;;;;;;;;;;;;;;;23.08;47.03;102177.13;4129732;28;19948;-65
2023/06/24 06:41:25;;;;;;;;;;;;;;;23.06;47.08;102174.53;4130975;28;19936;-65
2023/06/24 06:43:27;;;;;;;;;;;;;;;23.05;47.45;102175.50;4122281;28;19926;-64
2023/06/24 06:45:28;;;;;;;;;;;;;;;23.07;47.21;102170.88;4147615;28;19929;-65
2023/06/24 06:47:33;;;;;;;;;;;;;;;23.07;47.45;102170.03;4124010;28;19973;-66
2023/06/24 06:49:34;;;;;;;;;;;;;;;23.07;47.10;102170.03;4128141;28;20295;-66
2023/06/24 06:51:36;;;;;;;;;;;;;;;23.07;47.38;102165.50;4128696;28;19926;-66
2023/06/24 06:53:38;;;;;;;;;;;;;;;23.08;47.39;102171.75;4127614;28;19930;-65
2023/06/24 06:55:39;;;;;;;;;;;;;;;23.09;47.32;102171.63;4116340;28;19926;-66
2023/06/24 06:57:41;;;;;;;;;;;;;;;23.11;46.97;102174.22;4123444;28;19932;-66
2023/06/24 06:59:42;;;;;;;;;;;;;;;23.12;47.04;102174.13;4120678;28;19936;-66
2023/06/24 07:01:44;;;;;;;;;;;;;;;23.13;47.29;102173.16;4117848;28;19926;-66
2023/06/24 07:03:45;;;;;;;;;;;;;;;23.14;47.14;102166.81;4127451;28;19925;-67
2023/06/24 07:05:47;;;;;;;;;;;;;;;23.17;46.83;102164.94;4116601;28;19932;-66
2023/06/24 07:07:50;;;;;;;;;;;;;;;23.19;47.05;102165.72;4121126;28;19926;-65
2023/06/24 07:09:51;;;;;;;;;;;;;;;23.24;46.85;102174.31;4131208;28;20025;-66
2023/06/24 07:11:53;;;;;;;;;;;;;;;23.23;47.04;102169.91;4132334;28;20212;-66
2023/06/24 07:13:57;;;;;;;;;;;;;;;23.25;46.92;102167.97;4120670;28;19992;-65
2023/06/24 07:15:59;;;;;;;;;;;;;;;23.27;46.58;102163.38;4132411;28;19930;-65
2023/06/24 07:18:00;;;;;;;;;;;;;;;23.27;46.81;102152.66;4143360;28;19926;-66
2023/06/24 07:20:02;;;;;;;;;;;;;;;23.28;46.58;102157.91;4123403;28;20144;-65
2023/06/24 07:22:04;;;;;;;;;;;;;;;23.31;46.36;102156.84;4116492;28;19926;-66
2023/06/24 07:24:06;;;;;;;;;;;;;;;23.32;46.66;102160.38;4127016;28;20374;-66
2023/06/24 07:26:07;;;;;;;;;;;;;;;23.34;46.31;102167.34;4117072;28;19926;-65
2023/06/24 07:28:10;;;;;;;;;;;;;;;23.35;46.35;102162.84;4118385;28;19933;-65
2023/06/24 07:30:13;;;;;;;;;;;;;;;23.36;46.34;102152.00;4124492;28;19927;-65
2023/06/24 07:32:15;;;;;;;;;;;;;;;23.37;46.58;102161.78;4116151;28;20376;-65
2023/06/24 07:34:17;;;;;;;;;;;;;;;23.39;46.27;102162.56;4124654;28;20024;-66
2023/06/24 07:36:19;;;;;;;;;;;;;;;23.40;46.23;102156.22;4118044;28;20308;-65
2023/06/24 07:38:20;;;;;;;;;;;;;;;23.40;46.33;102161.59;4116770;28;19949;-67
2023/06/24 07:40:22;;;;;;;;;;;;;;;23.41;45.95;102155.25;4126160;28;20430;-65
2023/06/24 07:42:28;;;;;;;;;;;;;;;23.43;46.17;102165.91;4116276;28;19973;-65
2023/06/24 07:44:32;;;;;;;;;;;;;;;23.42;46.06;102158.81;4125163;28;19926;-64
2023/06/24 07:46:33;;;;;;;;;;;;;;;23.45;46.00;102161.25;4118591;28;19930;-65
2023/06/24 07:48:35;;;;;;;;;;;;;;;23.45;46.05;102162.13;4116508;28;19929;-66
2023/06/24 07:50:38;;;;;;;;;;;;;;;23.48;46.44;102165.59;4126436;28;19926;-66
2023/06/24 07:52:39;;;;;;;;;;;;;;;23.48;45.91;102162.91;4128604;28;19976;-65
2023/06/24 07:54:41;;;;;;;;;;;;;;;23.49;45.96;102159.22;4124056;28;19969;-64
2023/06/24 07:56:42;;;;;;;;;;;;;;;23.51;46.01;102162.69;4127679;28;19936;-66
2023/06/24 07:58:44;;;;;;;;;;;;;;;23.50;46.25;102156.47;4129426;28;19997;-66
2023/06/24 08:00:46;;;;;;;;;;;;;;;23.52;46.43;102159.03;4120405;28;19933;-68
2023/06/24 08:02:47;;;;;;;;;;;;;;;23.53;46.08;102152.72;4130586;28;20306;-68
2023/06/24 08:04:49;;;;;;;;;;;;;;;23.55;45.97;102154.31;4127638;28;20383;-69
2023/06/24 08:06:51;;;;;;;;;;;;;;;23.57;45.96;102149.72;4123343;28;19944;-68
2023/06/24 08:08:53;;;;;;;;;;;;;;;23.58;46.32;102156.78;4125841;28;19984;-67
2023/06/24 08:10:55;;;;;;;;;;;;;;;23.59;46.48;102153.13;4119683;28;19926;-68
2023/06/24 08:12:56;;;;;;;;;;;;;;;23.61;46.29;102153.06;4126467;28;20338;-68
2023/06/24 08:14:58;;;;;;;;;;;;;;;23.64;46.33;102150.13;4119690;28;19926;-68
2023/06/24 08:16:59;;;;;;;;;;;;;;;23.67;46.61;102147.25;4117281;28;20303;-69
2023/06/24 08:19:01;;;;;;;;;;;;;;;23.67;46.10;102149.06;4114380;28;19934;-70
2023/06/24 08:21:03;;;;;;;;;;;;;;;23.68;46.24;102143.59;4124018;28;19926;-69
2023/06/24 08:23:04;;;;;;;;;;;;;;;23.69;46.04;102145.31;4131142;28;20454;-70
2023/06/24 08:25:06;;;;;;;;;;;;;;;23.71;46.29;102147.91;4128671;28;19961;-70
2023/06/24 08:27:08;;;;;;;;;;;;;;;23.72;45.90;102146.91;4122056;28;20370;-70
2023/06/24 08:29:10;;;;;;;;;;;;;;;23.72;45.78;102138.84;4128432;28;19929;-70
2023/06/24 08:31:16;;;;;;;;;;;;;;;23.75;46.09;102141.34;4118892;28;19936;-69
2023/06/24 08:33:18;;;;;;;;;;;;;;;23.76;45.92;102149.28;4130334;28;19926;-70
2023/06/24 08:35:20;;;;;;;;;;;;;;;23.80;45.99;102146.41;4128316;28;19926;-70
2023/06/24 08:37:21;;;;;;;;;;;;;;;23.80;45.68;102143.72;4120793;28;20021;-70
2023/06/24 08:39:28;;;;;;;;;;;;;;;23.82;46.09;102142.63;4130083;28;20009;-69
2023/06/24 08:41:34;;;;;;;;;;;;;;;23.83;45.89;102144.38;4120366;28;19926;-68
2023/06/24 08:43:38;;;;;;;;;;;;;;;23.84;45.84;102140.72;4129434;28;19926;-68
2023/06/24 08:45:40;;;;;;;;;;;;;;;23.84;44.71;102138.03;4129206;28;19926;-67
2023/06/24 08:47:42;;;;;;;;;;;;;;;23.85;45.44;102133.50;4128529;28;19938;-68
2023/06/24 08:49:52;;;;;;;;;;;;;;;23.86;45.27;102140.59;4129136;28;19926;-69
2023/06/24 08:52:07;;;;;;;;;;;;;;;23.87;45.56;102124.38;4126433;28;19984;-68
2023/06/24 08:54:09;;;;;;;;;;;;;;;23.88;45.45;102130.63;4125477;28;20399;-67
2023/06/24 08:56:11;;;;;;;;;;;;;;;23.90;45.23;102125.97;4126910;28;19926;-68
2023/06/24 08:58:13;;;;;;;;;;;;;;;23.90;45.51;102116.09;4129298;28;19936;-69
2023/06/24 09:00:15;;;;;;;;;;;;;;;23.92;45.35;102121.34;4128889;28;20012;-68
2023/06/24 09:02:16;;;;;;;;;;;;;;;23.94;45.34;102114.09;4120194;28;19933;-70
2023/06/24 09:04:18;;;;;;;;;;;;;;;23.96;45.05;102122.03;4129463;28;19993;-68
2023/06/24 09:06:19;;;;;;;;;;;;;;;23.97;44.95;102121.06;4128847;28;19972;-68
2023/06/24 09:08:22;;;;;;;;;;;;;;;23.97;44.85;102118.38;4125363;28;19980;-70
2023/06/24 09:10:33;;;;;;;;;;;;;;;24.00;45.08;102112.78;4130080;28;19929;-71
2023/06/24 09:12:35;;;;;;;;;;;;;;;23.98;44.46;102109.38;4126599;28;19930;-70
2023/06/24 09:14:37;;;;;;;;;;;;;;;23.99;44.74;102103.88;4119231;28;19926;-70
2023/06/24 09:16:38;;;;;;;;;;;;;;;23.99;44.59;102101.19;4119323;28;19972;-72
2023/06/24 09:18:41;;;;;;;;;;;;;;;24.00;44.58;102102.03;4122883;28;20287;-67
2023/06/24 09:20:44;;;;;;;;;;;;;;;24.01;44.43;102104.63;4129779;28;19938;-67
2023/06/24 09:22:46;;;;;;;;;;;;;;;23.99;44.39;102101.19;4126268;28;19929;-67
2023/06/24 09:24:48;;;;;;;;;;;;;;;24.00;44.34;102097.53;4128187;28;19932;-66
2023/06/24 09:26:50;;;;;;;;;;;;;;;24.03;44.36;102097.28;4129485;28;20020;-64
2023/06/24 09:28:57;;;;;;;;;;;;;;;24.05;44.57;102094.53;4126178;28;20024;-63
2023/06/24 09:31:04;;;;;;;;;;;;;;;24.08;44.39;102099.66;4131087;28;19934;-64
2023/06/24 09:33:21;;;;;;;;;;;;;;;24.11;44.43;102086.03;4123213;28;19965;-62
2023/06/24 09:35:23;;;;;;;;;;;;;;;24.13;44.42;102089.44;4132553;28;19929;-64
2023/06/24 09:37:30;;;;;;;;;;;;;;;24.13;44.18;102089.44;4131643;28;19926;-64
2023/06/24 09:39:36;;;;;;;;;;;;;;;24.15;44.48;102083.97;4123725;28;19933;-64
2023/06/24 09:41:44;;;;;;;;;;;;;;;24.16;44.37;102083.00;4133895;28;19929;-65
2023/06/24 09:43:50;;;;;;;;;;;;;;;24.17;44.32;102073.94;4121784;28;20009;-66
2023/06/24 09:45:52;;;;;;;;;;;;;;;24.17;44.31;102072.13;4117849;28;19926;-62
2023/06/24 09:47:54;;;;;;;;;;;;;;;24.17;44.40;102073.94;4121033;28;20273;-65
2023/06/24 09:49:56;;;;;;;;;;;;;;;24.15;44.47;102075.91;4132220;28;20038;-61
2023/06/24 09:51:59;;;;;;;;;;;;;;;24.16;44.30;102067.72;4130797;28;20356;-60
2023/06/24 09:54:06;;;;;;;;;;;;;;;24.17;44.28;102069.44;4128479;28;19925;-61
2023/06/24 09:56:09;;;;;;;;;;;;;;;24.19;44.17;102067.53;4118099;28;19927;-61
2023/06/24 09:58:11;;;;;;;;;;;;;;;24.22;44.17;102072.66;4125516;28;19972;-63
2023/06/24 10:00:15;;;;;;;;;;;;;;;24.24;44.09;102059.97;4122967;28;19988;-70
2023/06/24 10:02:18;;;;;;;;;;;;;;;24.27;44.09;102056.19;4133372;28;19972;-65
2023/06/24 10:04:21;;;;;;;;;;;;;;;24.30;43.95;102055.09;4122626;28;20012;-71
2023/06/24 10:06:24;;;;;;;;;;;;;;;24.32;44.14;102055.88;4132019;28;20036;-70
2023/06/24 10:08:26;;;;;;;;;;;;;;;24.33;44.83;102052.22;4123080;28;20419;-70
2023/06/24 10:10:28;;;;;;;;;;;;;;;24.33;44.75;102045.00;4126559;28;19932;-70
2023/06/24 10:12:31;;;;;;;;;;;;;;;24.31;44.91;102038.84;4115819;28;19969;-70
2023/06/24 10:14:33;;;;;;;;;;;;;;;24.34;44.64;102033.28;4125715;28;19980;-69
2023/06/24 10:16:34;;;;;;;;;;;;;;;24.40;44.66;102034.66;4133461;28;19933;-75
2023/06/24 10:18:37;;;;;;;;;;;;;;;24.46;44.56;102030.63;4131889;28;19941;-71
2023/06/24 10:20:39;;;;;;;;;;;;;;;24.46;44.70;102028.81;4117402;28;19929;-74
2023/06/24 10:22:45;;;;;;;;;;;;;;;24.57;44.30;102030.72;4117858;28;20020;-74
2023/06/24 10:24:46;;;;;;;;;;;;;;;24.61;44.12;102021.44;4121955;28;20025;-73
2023/06/24 10:26:48;;;;;;;;;;;;;;;24.67;43.99;102025.53;4128801;28;19926;-76
2023/06/24 10:29:05;;;;;;;;;;;;;;;24.74;43.79;102021.41;4131697;28;19930;-73